createdAt,value
2023-01-07T15:21:18.966Z,2.40
2023-01-07T15:23:52.238Z,2.15
2023-01-07T15:26:23.554Z,1.65
2023-01-07T15:46:14.000Z,1.40
2023-01-07T15:48:41.849Z,1.20
2023-01-07T15:51:16.018Z,1.42
2023-01-07T15:53:44.611Z,1.25
2023-01-07T15:56:14.982Z,1.48
2023-01-07T15:58:44.792Z,1.30
2023-01-07T16:01:16.841Z,1.33
2023-01-07T16:03:45.102Z,1.55
2023-01-07T16:06:28.311Z,1.60
2023-01-07T16:08:56.118Z,1.45
2023-01-07T16:11:25.335Z,1.50
2023-01-07T16:13:56.984Z,1.70
2023-01-07T16:16:26.236Z,1.80
2023-01-07T16:18:58.194Z,1.70
2023-01-07T16:21:28.087Z,1.73
2023-01-07T16:23:56.143Z,2.00
2023-01-07T16:26:28.903Z,1.60
2023-01-07T16:29:00.290Z,1.90
2023-01-07T16:31:30.785Z,1.93
2023-01-07T16:33:59.667Z,1.70
2023-01-07T16:36:31.655Z,1.58
2023-01-07T16:39:00.616Z,1.83
2023-01-07T16:41:29.848Z,1.70
2023-01-07T16:43:58.659Z,2.47
2023-01-07T16:46:29.354Z,2.63
2023-01-07T16:49:22.492Z,3.08
2023-01-07T16:51:51.449Z,2.83
2023-01-07T16:54:33.288Z,3.05
2023-01-07T16:57:02.345Z,2.30
2023-01-07T16:59:32.192Z,3.27
2023-01-07T17:02:12.076Z,2.80
2023-01-07T17:04:40.013Z,2.20
2023-01-07T17:07:13.504Z,2.57
2023-01-07T17:09:41.276Z,2.00
2023-01-07T17:12:27.781Z,2.30
2023-01-07T17:14:55.550Z,3.23
2023-01-07T17:17:30.279Z,2.33
2023-01-07T17:20:13.931Z,2.10
2023-01-07T17:22:41.937Z,2.10
2023-01-07T17:25:10.959Z,2.17
2023-01-07T17:27:42.204Z,2.27
2023-01-07T17:30:15.773Z,2.50
2023-01-07T17:32:45.118Z,2.05
2023-01-07T17:35:20.712Z,2.22
2023-01-07T17:37:48.911Z,2.03
2023-01-07T17:40:17.363Z,2.40
2023-01-07T17:43:04.033Z,2.65
2023-01-07T17:45:31.838Z,2.30
2023-01-07T17:48:01.436Z,2.58
2023-01-07T17:50:34.420Z,2.03
2023-01-07T17:53:02.318Z,2.80
2023-01-07T17:55:31.618Z,2.10
2023-01-07T17:57:59.450Z,2.45
2023-01-07T18:00:30.659Z,2.20
2023-01-07T18:02:58.846Z,2.40
2023-01-07T18:05:28.038Z,2.10
2023-01-07T18:07:55.836Z,2.08
2023-01-07T18:10:50.894Z,2.13
2023-01-07T18:13:17.751Z,2.17
2023-01-07T18:15:45.480Z,2.63
2023-01-07T18:18:13.194Z,2.22
2023-01-07T18:20:42.302Z,2.30
2023-01-07T18:23:10.164Z,1.63
2023-01-07T18:25:38.097Z,2.50
2023-01-07T18:28:05.992Z,2.43
2023-01-07T18:30:36.483Z,2.20
2023-01-07T18:33:05.148Z,2.20
2023-01-07T18:35:32.880Z,2.08
2023-01-07T18:38:02.628Z,2.00
2023-01-07T18:40:31.971Z,2.30
2023-01-07T18:43:00.890Z,2.20
2023-01-07T18:45:28.732Z,2.43
2023-01-07T18:47:56.524Z,1.88
2023-01-07T18:50:24.307Z,2.23
2023-01-07T18:52:52.047Z,2.33
2023-01-07T18:55:21.145Z,2.70
2023-01-07T18:57:48.856Z,2.20
2023-01-07T19:00:17.613Z,2.20
2023-01-07T19:02:45.324Z,3.03
2023-01-07T19:05:13.100Z,2.40
2023-01-07T19:07:41.398Z,2.28
2023-01-07T19:10:09.967Z,2.70
2023-01-07T19:12:39.089Z,2.28
2023-01-07T19:15:07.859Z,2.35
2023-01-07T19:17:35.583Z,2.22
2023-01-07T19:20:03.382Z,2.33
2023-01-07T19:22:31.120Z,2.30
2023-01-07T19:24:58.944Z,2.43
2023-01-07T19:27:26.776Z,2.40
2023-01-07T19:29:55.827Z,2.45
2023-01-07T19:32:23.593Z,2.60
2023-01-07T19:34:52.373Z,2.88
2023-01-07T19:37:21.815Z,2.60
2023-01-07T19:39:49.569Z,2.25
2023-01-07T19:42:17.421Z,2.60
2023-01-07T19:44:45.114Z,3.25
2023-01-07T19:47:16.489Z,3.00
2023-01-07T19:49:45.301Z,3.10
2023-01-07T19:52:13.530Z,2.75
2023-01-07T19:54:41.804Z,2.87
2023-01-07T19:57:09.731Z,3.40
2023-01-07T19:59:37.573Z,3.10
2023-01-07T20:02:05.693Z,3.17
2023-01-07T20:04:34.951Z,2.67
2023-01-07T20:07:02.771Z,2.40
2023-01-07T20:09:31.269Z,2.90
2023-01-07T20:11:59.081Z,3.22
2023-01-07T20:14:26.856Z,2.70
2023-01-07T20:16:54.643Z,2.70
2023-01-07T20:19:23.328Z,2.72
2023-01-07T20:21:52.482Z,2.88
2023-01-07T20:24:20.246Z,2.40
2023-01-07T20:26:47.975Z,2.58
2023-01-07T20:29:15.774Z,2.78
2023-01-07T20:31:44.342Z,2.17
2023-01-07T20:34:12.562Z,2.70
2023-01-07T20:36:40.322Z,2.38
2023-01-07T20:39:09.415Z,2.33
2023-01-07T20:41:38.606Z,2.70
2023-01-07T20:44:08.650Z,2.38
2023-01-07T20:46:39.094Z,2.63
2023-01-07T20:49:06.816Z,2.20
2023-01-07T20:51:34.907Z,2.10
2023-01-07T20:54:02.692Z,2.55
2023-01-07T20:56:32.796Z,2.42
2023-01-07T20:59:01.605Z,2.45
2023-01-07T21:01:29.988Z,2.38
2023-01-07T21:03:58.125Z,2.55
2023-01-07T21:06:26.194Z,2.42
2023-01-07T21:08:54.003Z,2.33
2023-01-07T21:11:23.836Z,2.75
2023-01-07T21:13:55.966Z,2.88
2023-01-07T21:16:24.701Z,2.60
2023-01-07T21:18:52.516Z,2.70
2023-01-07T21:21:24.955Z,2.25
2023-01-07T21:23:53.138Z,2.40
2023-01-07T21:26:21.776Z,2.50
2023-01-07T21:28:49.615Z,2.50
2023-01-07T21:31:18.815Z,2.70
2023-01-07T21:33:46.532Z,2.58
2023-01-07T21:36:16.435Z,2.33
2023-01-07T21:38:44.894Z,3.00
2023-01-07T21:41:14.843Z,2.95
2023-01-07T21:43:43.217Z,2.30
2023-01-07T21:46:11.416Z,2.60
2023-01-07T21:48:42.919Z,2.50
2023-01-07T21:51:16.103Z,2.37
2023-01-07T21:53:44.540Z,2.78
2023-01-07T21:58:21.350Z,2.58
2023-01-07T22:00:50.747Z,2.97
2023-01-07T22:03:18.527Z,2.25
2023-01-07T22:05:56.008Z,2.47
2023-01-07T22:08:23.766Z,2.77
2023-01-07T22:10:51.559Z,2.70
2023-01-07T22:13:19.673Z,2.50
2023-01-07T22:15:48.931Z,2.58
2023-01-07T22:18:16.809Z,2.70
2023-01-07T22:20:44.582Z,2.83
2023-01-07T22:23:16.614Z,2.60
2023-01-07T22:25:44.672Z,2.63
2023-01-07T22:28:13.557Z,2.88
2023-01-07T22:30:44.466Z,2.67
2023-01-07T22:33:13.749Z,2.50
2023-01-07T22:35:41.862Z,2.60
2023-01-07T22:38:11.627Z,3.08
2023-01-07T22:40:39.955Z,2.90
2023-01-07T22:43:10.806Z,2.20
2023-01-07T22:45:44.117Z,2.75
2023-01-07T22:48:16.299Z,2.42
2023-01-07T22:50:44.164Z,2.67
2023-01-07T22:53:12.762Z,2.70
2023-01-07T22:55:41.662Z,2.55
2023-01-07T22:58:09.533Z,2.13
2023-01-07T23:00:41.794Z,2.55
2023-01-07T23:03:09.701Z,2.33
2023-01-07T23:05:39.773Z,2.53
2023-01-07T23:08:08.397Z,2.60
2023-01-07T23:10:37.389Z,2.35
2023-01-07T23:13:05.746Z,2.10
2023-01-07T23:15:34.513Z,2.25
2023-01-07T23:18:02.291Z,2.90
2023-01-07T23:20:30.475Z,2.50
2023-01-07T23:23:00.508Z,2.67
2023-01-07T23:25:28.636Z,2.42
2023-01-07T23:27:56.443Z,2.35
2023-01-07T23:30:24.578Z,2.00
2023-01-07T23:32:52.299Z,2.45
2023-01-07T23:35:20.116Z,2.28
2023-01-07T23:37:47.961Z,2.17
2023-01-07T23:40:17.852Z,1.90
2023-01-07T23:42:49.069Z,2.30
2023-01-07T23:45:17.229Z,2.35
2023-01-07T23:47:45.947Z,1.88
2023-01-07T23:50:13.964Z,1.95
2023-01-07T23:52:41.873Z,1.73
2023-01-07T23:55:11.489Z,2.00
2023-01-07T23:57:40.743Z,2.00
